PWSweather.com
Personal Weather Stations
Station Observations
KC4YGB
Carter Ridge, Rock Cave, WV 26218

Carter RidgeRock Cave, WV 26218

Lat: 38.842212, Lon: -80.272288

Elevation: 1857

Station Type: Davis Vantage Vue

https://www.facebook.com/WVWEATHERCENTRAL

Latest ConditionsUpdated 3:21:41 AM EDT Friday, Aug 28, 2015
Currently Today's Max Today's Min Today's Average
Temperature 53.7°F12.1°C 56.7°F13.7°C 53.4°F11.9°C 55.7°F13.2°C
Dew Point 52.3°F11.3°C 54.1°F12.3°C 51.4°F10.8°C 53.1°F11.7°C
Winds 1.0 mph NNE1.6 kmh NNE 3.0 mph NE4.8 kmh NE - 1.1 mph 1.8 kmh
Wind Gusts 1.0 mph1.6 kmh 4.0 mph6.4 kmh - -
Humidity 95% 95% 90% 91%
Pressure 30.16 in1021.3 mb 30.19 in1022.4 mb 30.16 in1021.3 mb -
Hour Temp Dew Point Humidity Winds Wind Gusts Pressure Precip Precip Rate Daily Precip Total
03:21 AM 53.7°F12.1°C 52.3°F11.3°C 95% 1.0 mph NNE1.6 kmh NNE 1.0 mph1.6 kmh 30.16 in1021.3 mb 0.00 in0.0 mm 0.00 in0.0 mm 0.00 in0.0 mm
03:16 AM 53.4°F11.9°C 51.4°F10.8°C 93% 1.0 mph NE1.6 kmh NE 2.0 mph3.2 kmh 30.16 in1021.3 mb 0.00 in0.0 mm 0.00 in0.0 mm 0.00 in0.0 mm
03:11 AM 53.7°F12.1°C 51.7°F10.9°C 93% 2.0 mph NE3.2 kmh NE 2.0 mph3.2 kmh 30.16 in1021.3 mb 0.00 in0.0 mm 0.00 in0.0 mm 0.00 in0.0 mm
03:06 AM 54.1°F12.3°C 51.8°F11.0°C 92% 2.0 mph NE3.2 kmh NE 3.0 mph4.8 kmh 30.16 in1021.3 mb 0.00 in0.0 mm 0.00 in0.0 mm 0.00 in0.0 mm
03:02 AM 54.9°F12.7°C 52.3°F11.3°C 91% 1.0 mph NE1.6 kmh NE 2.0 mph3.2 kmh 30.16 in1021.3 mb 0.00 in0.0 mm 0.00 in0.0 mm 0.00 in0.0 mm
02:56 AM 55.1°F12.8°C 52.5°F11.4°C 91% 1.0 mph NE1.6 kmh NE 2.0 mph3.2 kmh 30.16 in1021.3 mb 0.00 in0.0 mm 0.00 in0.0 mm 0.00 in0.0 mm
02:51 AM 55.0°F12.8°C 52.7°F11.5°C 92% 2.0 mph NE3.2 kmh NE 2.0 mph3.2 kmh 30.17 in1021.7 mb 0.00 in0.0 mm 0.00 in0.0 mm 0.00 in0.0 mm
02:47 AM 54.9°F12.7°C 52.6°F11.4°C 92% 2.0 mph NNE3.2 kmh NNE 2.0 mph3.2 kmh 30.17 in1021.7 mb 0.00 in0.0 mm 0.00 in0.0 mm 0.00 in0.0 mm
02:41 AM 55.0°F12.8°C 52.7°F11.5°C 92% 2.0 mph NNE3.2 kmh NNE 2.0 mph3.2 kmh 30.16 in1021.3 mb 0.00 in0.0 mm 0.00 in0.0 mm 0.00 in0.0 mm
02:36 AM 55.0°F12.8°C 52.4°F11.3°C 91% 3.0 mph NE4.8 kmh NE 4.0 mph6.4 kmh 30.17 in1021.7 mb 0.00 in0.0 mm 0.00 in0.0 mm 0.00 in0.0 mm
02:31 AM 55.3°F12.9°C 52.7°F11.5°C 91% 3.0 mph NE4.8 kmh NE 3.0 mph4.8 kmh 30.17 in1021.7 mb 0.00 in0.0 mm 0.00 in0.0 mm 0.00 in0.0 mm
02:26 AM 55.4°F13.0°C 52.8°F11.6°C 91% 3.0 mph NE4.8 kmh NE 4.0 mph6.4 kmh 30.17 in1021.7 mb 0.00 in0.0 mm 0.00 in0.0 mm 0.00 in0.0 mm
02:21 AM 55.5°F13.1°C 52.9°F11.6°C 91% 3.0 mph NE4.8 kmh NE 3.0 mph4.8 kmh 30.17 in1021.7 mb 0.00 in0.0 mm 0.00 in0.0 mm 0.00 in0.0 mm
02:16 AM 55.6°F13.1°C 53.0°F11.7°C 91% 3.0 mph NE4.8 kmh NE 4.0 mph6.4 kmh 30.17 in1021.7 mb 0.00 in0.0 mm 0.00 in0.0 mm 0.00 in0.0 mm
02:11 AM 55.7°F13.2°C 53.1°F11.7°C 91% 2.0 mph NE3.2 kmh NE 3.0 mph4.8 kmh 30.17 in1021.7 mb 0.00 in0.0 mm 0.00 in0.0 mm 0.00 in0.0 mm
02:06 AM 55.6°F13.1°C 53.0°F11.7°C 91% Calm Calm 3.0 mph4.8 kmh 30.17 in1021.7 mb 0.00 in0.0 mm 0.00 in0.0 mm 0.00 in0.0 mm
02:02 AM 55.6°F13.1°C 53.0°F11.7°C 91% Calm Calm -- 30.18 in1022.0 mb 0.00 in0.0 mm 0.00 in0.0 mm 0.00 in0.0 mm
01:56 AM 55.7°F13.2°C 53.1°F11.7°C 91% Calm Calm 1.0 mph1.6 kmh 30.18 in1022.0 mb 0.00 in0.0 mm 0.00 in0.0 mm 0.00 in0.0 mm
01:51 AM 55.7°F13.2°C 53.1°F11.7°C 91% 1.0 mph N1.6 kmh N 1.0 mph1.6 kmh 30.18 in1022.0 mb 0.00 in0.0 mm 0.00 in0.0 mm 0.00 in0.0 mm
01:46 AM 55.9°F13.3°C 53.3°F11.8°C 91% 1.0 mph N1.6 kmh N 2.0 mph3.2 kmh 30.18 in1022.0 mb 0.00 in0.0 mm 0.00 in0.0 mm 0.00 in0.0 mm
01:41 AM 55.9°F13.3°C 53.3°F11.8°C 91% 1.0 mph NNE1.6 kmh NNE 1.0 mph1.6 kmh 30.18 in1022.0 mb 0.00 in0.0 mm 0.00 in0.0 mm 0.00 in0.0 mm
01:36 AM 55.7°F13.2°C 53.1°F11.7°C 91% Calm Calm 1.0 mph1.6 kmh 30.18 in1022.0 mb 0.00 in0.0 mm 0.00 in0.0 mm 0.00 in0.0 mm
01:32 AM 55.7°F13.2°C 53.1°F11.7°C 91% 1.0 mph NNE1.6 kmh NNE 1.0 mph1.6 kmh 30.18 in1022.0 mb 0.00 in0.0 mm 0.00 in0.0 mm 0.00 in0.0 mm
01:26 AM 56.0°F13.3°C 53.1°F11.7°C 90% 1.0 mph NNE1.6 kmh NNE 2.0 mph3.2 kmh 30.18 in1022.0 mb 0.00 in0.0 mm 0.00 in0.0 mm 0.00 in0.0 mm
01:21 AM 56.3°F13.5°C 53.4°F11.9°C 90% 1.0 mph NE1.6 kmh NE 2.0 mph3.2 kmh 30.18 in1022.0 mb 0.00 in0.0 mm 0.00 in0.0 mm 0.00 in0.0 mm
01:16 AM 56.5°F13.6°C 53.6°F12.0°C 90% 2.0 mph NE3.2 kmh NE 4.0 mph6.4 kmh 30.19 in1022.4 mb 0.00 in0.0 mm 0.00 in0.0 mm 0.00 in0.0 mm
01:11 AM 56.4°F13.6°C 53.5°F11.9°C 90% 2.0 mph NE3.2 kmh NE 2.0 mph3.2 kmh 30.19 in1022.4 mb 0.00 in0.0 mm 0.00 in0.0 mm 0.00 in0.0 mm
01:06 AM 56.2°F13.4°C 53.6°F12.0°C 91% 2.0 mph NNE3.2 kmh NNE 2.0 mph3.2 kmh 30.19 in1022.4 mb 0.00 in0.0 mm 0.00 in0.0 mm 0.00 in0.0 mm
01:02 AM 56.2°F13.4°C 53.6°F12.0°C 91% 1.0 mph ENE1.6 kmh ENE 2.0 mph3.2 kmh 30.19 in1022.4 mb 0.00 in0.0 mm 0.00 in0.0 mm 0.00 in0.0 mm
12:56 AM 56.2°F13.4°C 53.6°F12.0°C 91% Calm Calm 1.0 mph1.6 kmh 30.19 in1022.4 mb 0.00 in0.0 mm 0.00 in0.0 mm 0.00 in0.0 mm
12:51 AM 56.3°F13.5°C 53.7°F12.1°C 91% Calm Calm -- 30.19 in1022.4 mb 0.00 in0.0 mm 0.00 in0.0 mm 0.00 in0.0 mm
12:47 AM 56.3°F13.5°C 53.7°F12.1°C 91% Calm Calm 1.0 mph1.6 kmh 30.19 in1022.4 mb 0.00 in0.0 mm 0.00 in0.0 mm 0.00 in0.0 mm
12:41 AM 56.3°F13.5°C 53.7°F12.1°C 91% Calm Calm -- 30.19 in1022.4 mb 0.00 in0.0 mm 0.00 in0.0 mm 0.00 in0.0 mm
12:36 AM 56.2°F13.4°C 53.6°F12.0°C 91% Calm Calm 1.0 mph1.6 kmh 30.19 in1022.4 mb 0.00 in0.0 mm 0.00 in0.0 mm 0.00 in0.0 mm
12:31 AM 56.3°F13.5°C 53.7°F12.1°C 91% Calm Calm -- 30.19 in1022.4 mb 0.00 in0.0 mm 0.00 in0.0 mm 0.00 in0.0 mm
12:26 AM 56.5°F13.6°C 53.9°F12.2°C 91% Calm Calm 1.0 mph1.6 kmh 30.19 in1022.4 mb 0.00 in0.0 mm 0.00 in0.0 mm 0.00 in0.0 mm
12:21 AM 56.7°F13.7°C 53.8°F12.1°C 90% 1.0 mph NNE1.6 kmh NNE 1.0 mph1.6 kmh 30.19 in1022.4 mb 0.00 in0.0 mm 0.00 in0.0 mm 0.00 in0.0 mm
12:16 AM 56.7°F13.7°C 54.1°F12.3°C 91% 1.0 mph N1.6 kmh N 2.0 mph3.2 kmh 30.19 in1022.4 mb 0.00 in0.0 mm 0.00 in0.0 mm 0.00 in0.0 mm
12:11 AM 56.6°F13.7°C 54.0°F12.2°C 91% Calm Calm 1.0 mph1.6 kmh 30.19 in1022.4 mb 0.00 in0.0 mm 0.00 in0.0 mm 0.00 in0.0 mm
12:06 AM 56.5°F13.6°C 53.9°F12.2°C 91% Calm Calm 2.0 mph3.2 kmh 30.19 in1022.4 mb 0.00 in0.0 mm 0.00 in0.0 mm 0.00 in0.0 mm
12:02 AM 56.7°F13.7°C 54.1°F12.3°C 91% 1.0 mph NE1.6 kmh NE 2.0 mph3.2 kmh 30.19 in1022.4 mb 0.00 in0.0 mm 0.00 in0.0 mm 0.00 in0.0 mm